createdAt,value
2022-08-05T00:01:20.293Z,61.02
2022-08-05T00:02:08.011Z,61.35
2022-08-05T00:02:58.379Z,62.36
2022-08-05T00:03:57.513Z,61.55
2022-08-05T00:04:57.200Z,60.05
2022-08-05T00:06:06.701Z,60.05
2022-08-05T00:06:58.204Z,60.65
2022-08-05T00:07:59.663Z,60.65
2022-08-05T00:08:57.153Z,60.65
2022-08-05T00:09:57.135Z,60.55
2022-08-05T00:10:57.128Z,60.25
2022-08-05T00:11:59.980Z,59.75
2022-08-05T00:12:57.131Z,61.29
2022-08-05T00:13:57.086Z,62.16
2022-08-05T00:14:57.075Z,60.96
2022-08-05T00:15:58.128Z,61.66
2022-08-05T00:16:57.051Z,60.85
2022-08-05T00:17:57.034Z,62.08
2022-08-05T00:18:57.024Z,61.99
2022-08-05T00:20:01.903Z,61.79
2022-08-05T00:20:56.998Z,63.19
2022-08-05T00:21:56.983Z,63.90
2022-08-05T00:22:59.579Z,62.89
2022-08-05T00:24:10.296Z,62.92
2022-08-05T00:24:57.981Z,63.53
2022-08-05T00:25:56.934Z,64.33
2022-08-05T00:26:57.050Z,65.73
2022-08-05T00:27:56.909Z,67.04
2022-08-05T00:28:56.896Z,66.84
2022-08-05T00:29:56.883Z,66.87
2022-08-05T00:30:56.870Z,66.97
2022-08-05T00:32:12.651Z,67.07
2022-08-05T00:32:57.880Z,67.27
2022-08-05T00:34:53.628Z,67.78
2022-08-05T00:35:06.575Z,65.87
2022-08-05T00:36:15.028Z,65.47
2022-08-05T00:37:10.691Z,65.53
2022-08-05T00:37:57.811Z,65.94
2022-08-05T00:38:56.800Z,66.03
2022-08-05T00:39:58.340Z,66.44
2022-08-05T00:40:56.743Z,65.33
2022-08-05T00:41:56.733Z,66.57
2022-08-05T00:42:56.733Z,66.77
2022-08-05T00:43:56.706Z,65.26
2022-08-05T00:44:56.695Z,65.16
2022-08-05T00:45:56.684Z,65.16
2022-08-05T00:47:04.165Z,64.96
2022-08-05T00:48:05.684Z,64.36
2022-08-05T00:48:57.673Z,64.06
2022-08-05T00:49:56.634Z,64.16
2022-08-05T00:50:56.618Z,64.96
2022-08-05T00:51:56.607Z,65.56
2022-08-05T00:52:56.593Z,66.27
2022-08-05T00:54:02.578Z,65.56
2022-08-05T00:54:57.599Z,66.47
2022-08-05T00:55:56.551Z,66.57
2022-08-05T00:56:56.545Z,66.17
2022-08-05T00:57:59.097Z,66.37
2022-08-05T00:58:56.519Z,66.47
2022-08-05T00:59:56.505Z,66.57
2022-08-05T01:00:56.640Z,66.67
2022-08-05T01:01:56.580Z,66.87
2022-08-05T01:02:56.466Z,67.11
2022-08-05T01:03:56.453Z,66.91
2022-08-05T01:04:56.441Z,66.60
2022-08-05T01:05:56.430Z,66.40
2022-08-05T01:06:56.414Z,66.50
2022-08-05T01:08:42.369Z,66.50
2022-08-05T01:08:57.419Z,66.20
2022-08-05T01:09:56.376Z,66.10
2022-08-05T01:10:56.377Z,66.40
2022-08-05T01:11:56.353Z,67.07
2022-08-05T01:13:12.916Z,67.27
2022-08-05T01:13:59.612Z,66.27
2022-08-05T01:14:56.313Z,65.87
2022-08-05T01:15:56.301Z,65.06
2022-08-05T01:16:56.291Z,65.06
2022-08-05T01:17:56.275Z,65.77
2022-08-05T01:18:56.754Z,66.84
2022-08-05T01:20:01.683Z,66.03
2022-08-05T01:20:57.268Z,65.73
2022-08-05T01:21:56.224Z,66.14
2022-08-05T01:22:57.198Z,66.74
2022-08-05T01:23:56.200Z,66.34
2022-08-05T01:24:56.187Z,66.74
2022-08-05T01:25:56.178Z,66.94
2022-08-05T01:26:56.163Z,67.14
2022-08-05T01:27:56.147Z,68.35
2022-08-05T01:28:56.138Z,67.74
2022-08-05T01:29:56.127Z,67.14
2022-08-05T01:30:56.117Z,67.04
2022-08-05T01:31:56.107Z,67.01
2022-08-05T01:32:56.088Z,66.11
2022-08-05T01:33:56.079Z,66.44
2022-08-05T01:34:56.062Z,66.74
2022-08-05T01:35:57.455Z,67.14
2022-08-05T01:36:56.036Z,67.44
2022-08-05T01:37:56.024Z,67.94
2022-08-05T01:38:56.047Z,67.41
2022-08-05T01:39:59.215Z,67.82
2022-08-05T01:40:55.987Z,68.12
2022-08-05T01:41:55.978Z,67.51
2022-08-05T01:42:55.969Z,67.82
2022-08-05T01:43:55.949Z,68.12
2022-08-05T01:44:55.941Z,67.71
2022-08-05T01:45:56.473Z,67.91
2022-08-05T01:46:55.911Z,68.41
2022-08-05T01:47:55.901Z,68.32
2022-08-05T01:48:55.891Z,68.45
2022-08-05T01:50:02.227Z,68.15
2022-08-05T01:50:56.894Z,68.65
2022-08-05T01:51:55.853Z,69.35
2022-08-05T01:52:55.837Z,69.25
2022-08-05T01:53:58.853Z,68.35
2022-08-05T01:54:55.833Z,68.55
2022-08-05T01:55:55.799Z,68.85
2022-08-05T01:58:11.439Z,68.35
2022-08-05T01:58:13.738Z,68.05
2022-08-05T01:58:56.793Z,68.45
2022-08-05T01:59:55.748Z,68.75
2022-08-05T02:00:55.735Z,68.35
2022-08-05T02:01:55.770Z,68.38
2022-08-05T02:02:55.716Z,67.78
2022-08-05T02:03:55.717Z,68.18
2022-08-05T02:04:55.683Z,68.18
2022-08-05T02:05:59.758Z,68.59
2022-08-05T02:06:55.661Z,69.29
2022-08-05T02:07:59.968Z,69.38
2022-08-05T02:08:58.327Z,68.98
2022-08-05T02:09:55.623Z,69.09
2022-08-05T02:10:55.608Z,68.98
2022-08-05T02:11:55.596Z,69.49
2022-08-05T02:12:55.585Z,68.88
2022-08-05T02:13:55.574Z,68.38
2022-08-05T02:14:55.561Z,68.38
2022-08-05T02:15:55.557Z,68.68
2022-08-05T02:16:55.536Z,68.98
2022-08-05T02:18:30.717Z,68.48
2022-08-05T02:18:56.551Z,69.09
2022-08-05T02:19:55.498Z,69.18
2022-08-05T02:20:55.486Z,68.98
2022-08-05T02:21:55.471Z,68.95
2022-08-05T02:22:55.458Z,68.65
2022-08-05T02:23:55.445Z,69.25
2022-08-05T02:24:55.435Z,69.56
2022-08-05T02:25:55.422Z,67.94
2022-08-05T02:26:55.407Z,67.74
2022-08-05T02:27:59.080Z,68.35
2022-08-05T02:28:55.381Z,68.65
2022-08-05T02:29:59.556Z,67.85
2022-08-05T02:30:56.715Z,67.65
2022-08-05T02:31:55.346Z,68.05
2022-08-05T02:32:55.333Z,68.75
2022-08-05T02:33:57.847Z,68.65
2022-08-05T02:34:55.321Z,67.44
2022-08-05T02:35:58.992Z,67.85
2022-08-05T02:36:55.282Z,68.05
2022-08-05T02:37:55.268Z,68.25
2022-08-05T02:38:55.311Z,67.94
2022-08-05T02:39:55.371Z,68.45
2022-08-05T02:40:55.231Z,68.65
2022-08-05T02:42:00.797Z,68.15
2022-08-05T02:42:56.250Z,67.94
2022-08-05T02:44:02.557Z,68.15
2022-08-05T02:44:56.211Z,67.94
2022-08-05T02:45:55.170Z,68.05
2022-08-05T02:47:00.621Z,68.65
2022-08-05T02:48:07.058Z,68.45
2022-08-05T02:48:56.164Z,68.85
2022-08-05T02:49:55.126Z,69.25
2022-08-05T02:50:55.108Z,68.75
2022-08-05T02:52:02.736Z,68.25
2022-08-05T02:52:56.112Z,68.15
2022-08-05T02:53:55.070Z,67.24
2022-08-05T02:54:56.083Z,67.35
2022-08-05T02:55:59.820Z,67.04
2022-08-05T02:56:55.035Z,66.54
2022-08-05T02:58:20.365Z,66.54
2022-08-05T02:58:56.036Z,66.34
2022-08-05T02:59:55.005Z,65.94
2022-08-05T03:00:55.000Z,65.84
2022-08-05T03:01:55.011Z,65.60
2022-08-05T03:02:54.953Z,67.11
2022-08-05T03:04:04.291Z,66.00
2022-08-05T03:04:55.963Z,65.50
2022-08-05T03:06:56.561Z,65.20
2022-08-05T03:06:59.271Z,65.10
2022-08-05T03:08:07.005Z,64.90
2022-08-05T03:08:55.913Z,64.67
2022-08-05T03:09:54.869Z,65.07
2022-08-05T03:11:53.554Z,64.57
2022-08-05T03:11:58.194Z,65.17
2022-08-05T03:12:55.034Z,65.07
2022-08-05T03:14:03.225Z,65.37
2022-08-05T03:14:55.836Z,65.97
2022-08-05T03:15:54.796Z,64.97
2022-08-05T03:16:54.783Z,64.37
2022-08-05T03:17:55.776Z,64.47
2022-08-05T03:18:54.758Z,64.77
2022-08-05T03:19:54.746Z,64.97
2022-08-05T03:20:54.732Z,64.57
2022-08-05T03:21:54.719Z,64.64
2022-08-05T03:22:57.164Z,65.44
2022-08-05T03:23:54.697Z,65.14
2022-08-05T03:24:54.684Z,65.94
2022-08-05T03:26:05.035Z,65.24
2022-08-05T03:26:55.689Z,66.05
2022-08-05T03:27:59.549Z,66.44
2022-08-05T03:28:54.634Z,65.74
2022-08-05T03:30:08.264Z,66.24
2022-08-05T03:30:55.637Z,66.35
2022-08-05T03:31:56.476Z,67.05
2022-08-05T03:32:54.581Z,66.95
2022-08-05T03:33:54.572Z,66.75
2022-08-05T03:34:54.556Z,67.65
2022-08-05T03:35:54.546Z,67.48
2022-08-05T03:36:54.534Z,66.67
2022-08-05T03:37:54.522Z,66.67
2022-08-05T03:38:54.629Z,66.67
2022-08-05T03:39:59.278Z,67.18
2022-08-05T03:40:55.609Z,67.58
2022-08-05T03:41:56.231Z,67.58
2022-08-05T03:42:54.457Z,68.29
2022-08-05T03:44:09.203Z,68.49
2022-08-05T03:44:55.466Z,68.29
2022-08-05T03:45:57.910Z,68.68
2022-08-05T03:46:54.409Z,68.38
2022-08-05T03:47:56.822Z,68.59
2022-08-05T03:48:54.384Z,68.68
2022-08-05T03:49:54.371Z,68.62
2022-08-05T03:50:54.362Z,69.22
2022-08-05T03:52:50.548Z,68.72
2022-08-05T03:55:50.143Z,68.21
2022-08-05T03:55:53.870Z,69.62
2022-08-05T03:56:01.057Z,69.62
2022-08-05T03:56:10.197Z,69.32
2022-08-05T03:56:55.316Z,69.52
2022-08-05T03:57:54.272Z,69.52
2022-08-05T03:58:54.259Z,69.42
2022-08-05T03:59:54.834Z,69.92
2022-08-05T04:00:54.235Z,69.22
2022-08-05T04:01:54.295Z,69.32
2022-08-05T04:02:58.451Z,69.92
2022-08-05T04:04:09.996Z,70.53
2022-08-05T04:04:55.215Z,69.92
2022-08-05T04:05:54.169Z,69.32
2022-08-05T04:06:54.165Z,70.53
2022-08-05T04:07:57.854Z,69.52
2022-08-05T04:08:54.135Z,69.32
2022-08-05T04:09:54.124Z,69.52
2022-08-05T04:10:54.110Z,69.72
2022-08-05T04:11:54.097Z,69.76
2022-08-05T04:12:54.085Z,70.36
2022-08-05T04:13:54.075Z,70.96
2022-08-05T04:14:54.058Z,69.65
2022-08-05T04:16:04.765Z,70.16
2022-08-05T04:16:55.066Z,70.36
2022-08-05T04:17:57.197Z,70.56
2022-08-05T04:18:54.757Z,69.85
2022-08-05T04:19:54.458Z,69.96
2022-08-05T04:20:53.985Z,69.65
2022-08-05T04:22:09.624Z,69.25
2022-08-05T04:22:54.995Z,69.56
2022-08-05T04:24:05.256Z,69.56
2022-08-05T04:24:54.964Z,69.96
2022-08-05T04:25:57.900Z,70.19
2022-08-05T04:26:54.942Z,69.59
2022-08-05T04:27:57.309Z,70.09
2022-08-05T04:28:53.884Z,69.89
2022-08-05T04:29:53.876Z,69.49
2022-08-05T04:30:53.863Z,70.19
2022-08-05T04:31:53.848Z,70.59
2022-08-05T04:32:53.833Z,70.59
2022-08-05T04:34:17.483Z,70.39
2022-08-05T04:34:57.619Z,70.50
2022-08-05T04:36:16.103Z,70.50
2022-08-05T04:36:54.826Z,70.89
2022-08-05T04:38:00.856Z,70.79
2022-08-05T04:38:54.844Z,70.79
2022-08-05T04:39:55.694Z,70.50
2022-08-05T04:40:53.737Z,71.00
2022-08-05T04:41:53.724Z,70.89
2022-08-05T04:42:53.709Z,71.40
2022-08-05T04:43:53.700Z,71.09
2022-08-05T04:44:53.687Z,70.59
2022-08-05T04:45:54.938Z,70.89
2022-08-05T04:46:53.661Z,71.70
2022-08-05T04:47:53.649Z,71.50
2022-08-05T04:48:53.642Z,71.90
2022-08-05T04:50:06.539Z,71.70
2022-08-05T04:51:02.035Z,72.10
2022-08-05T04:52:00.487Z,71.80
2022-08-05T04:52:54.616Z,71.80
2022-08-05T04:53:53.575Z,71.60
2022-08-05T04:54:53.563Z,72.00
2022-08-05T04:56:33.742Z,72.20
2022-08-05T04:56:58.920Z,72.50
2022-08-05T04:57:54.144Z,72.91
2022-08-05T04:58:53.518Z,72.10
2022-08-05T04:59:53.496Z,72.71
2022-08-05T05:00:53.515Z,72.41
2022-08-05T05:02:35.492Z,71.20
2022-08-05T05:02:54.636Z,71.47
2022-08-05T05:03:53.452Z,71.47
2022-08-05T05:05:02.210Z,71.47
2022-08-05T05:06:39.034Z,71.87
2022-08-05T05:06:57.560Z,71.73
2022-08-05T05:07:56.479Z,72.53
2022-08-05T05:08:54.417Z,71.33
2022-08-05T05:09:53.373Z,70.12
2022-08-05T05:10:56.369Z,71.00
2022-08-05T05:11:57.821Z,70.79
2022-08-05T05:12:54.365Z,70.16
2022-08-05T05:13:53.324Z,69.15
2022-08-05T05:14:53.311Z,69.32
2022-08-05T05:15:57.488Z,69.22
2022-08-05T05:16:54.502Z,67.61
2022-08-05T05:17:56.658Z,67.72
2022-08-05T05:19:17.566Z,67.99
2022-08-05T05:19:54.278Z,68.49
2022-08-05T05:20:53.238Z,68.46
2022-08-05T05:21:55.579Z,67.72
2022-08-05T05:22:53.212Z,67.12
2022-08-05T05:24:03.895Z,66.89
2022-08-05T05:24:57.731Z,66.59
2022-08-05T05:25:53.174Z,65.99
2022-08-05T05:26:53.168Z,65.28
2022-08-05T05:27:54.033Z,65.82
2022-08-05T05:28:53.138Z,66.12
2022-08-05T05:30:04.008Z,65.05
2022-08-05T05:30:54.142Z,63.39
2022-08-05T05:31:53.098Z,62.37
2022-08-05T05:32:53.092Z,61.73
2022-08-05T05:33:59.236Z,60.88
2022-08-05T05:34:54.099Z,59.55
2022-08-05T05:35:53.047Z,59.15
2022-08-05T05:36:53.039Z,58.95
2022-08-05T05:38:00.285Z,59.70
2022-08-05T05:38:54.096Z,62.04
2022-08-05T05:39:53.030Z,62.16
2022-08-05T05:40:52.990Z,62.59
2022-08-05T05:41:54.052Z,63.82
2022-08-05T05:42:52.964Z,63.95
2022-08-05T05:43:58.571Z,64.59
2022-08-05T05:44:53.971Z,65.52
2022-08-05T05:45:52.926Z,66.35
2022-08-05T05:46:52.912Z,66.25
2022-08-05T05:48:06.224Z,66.58
2022-08-05T05:48:53.923Z,68.59
2022-08-05T05:49:56.839Z,67.72
2022-08-05T05:50:53.891Z,68.12
2022-08-05T05:51:53.519Z,69.82
2022-08-05T05:52:52.839Z,69.92
2022-08-05T05:53:58.545Z,69.26
2022-08-05T05:54:53.846Z,69.85
2022-08-05T05:56:00.989Z,69.85
2022-08-05T05:56:53.818Z,71.26
2022-08-05T05:57:53.236Z,71.36
2022-08-05T05:58:52.767Z,70.46
2022-08-05T05:59:52.882Z,70.43
2022-08-05T06:00:52.738Z,69.16
2022-08-05T06:01:57.756Z,70.69
2022-08-05T06:02:52.711Z,69.69
2022-08-05T06:04:00.700Z,69.69
2022-08-05T06:04:53.777Z,69.09
2022-08-05T06:05:54.139Z,70.09
2022-08-05T06:06:52.672Z,71.39
2022-08-05T06:08:01.397Z,72.80
2022-08-05T06:08:53.675Z,71.90
2022-08-05T06:10:04.364Z,70.50
2022-08-05T06:10:53.655Z,73.40
2022-08-05T06:11:59.280Z,71.20
2022-08-05T06:12:53.614Z,71.50
2022-08-05T06:13:54.214Z,73.80
2022-08-05T06:14:52.564Z,72.80
2022-08-05T06:16:28.474Z,72.70
2022-08-05T06:16:53.570Z,70.69
2022-08-05T06:17:54.529Z,70.46
2022-08-05T06:18:53.636Z,71.36
2022-08-05T06:19:59.043Z,70.26
2022-08-05T06:20:54.159Z,69.86
2022-08-05T06:21:52.476Z,70.09
2022-08-05T06:22:52.463Z,68.55
2022-08-05T06:23:52.451Z,67.32
2022-08-05T06:24:52.441Z,65.47
2022-08-05T06:26:12.566Z,61.61
2022-08-05T06:26:53.450Z,60.86
2022-08-05T06:28:10.624Z,60.76
2022-08-05T06:28:53.419Z,60.40
2022-08-05T06:30:04.267Z,59.15
2022-08-05T06:30:53.396Z,57.15
2022-08-05T06:31:52.360Z,53.58
2022-08-05T06:32:52.346Z,51.97
2022-08-05T06:34:07.675Z,52.98
2022-08-05T06:34:54.102Z,49.72
2022-08-05T06:36:07.160Z,49.18
2022-08-05T06:36:57.566Z,50.29
2022-08-05T06:37:57.651Z,47.41
2022-08-05T06:38:53.402Z,46.15
2022-08-05T06:39:52.245Z,43.90
2022-08-05T06:40:52.236Z,42.58
2022-08-05T06:41:52.232Z,43.13
2022-08-05T06:42:52.833Z,41.72
2022-08-05T06:43:57.714Z,39.90
2022-08-05T06:44:53.219Z,39.26
2022-08-05T06:46:06.661Z,38.82
2022-08-05T06:46:54.294Z,37.43
2022-08-05T06:48:37.015Z,36.53
2022-08-05T06:48:56.753Z,35.75
2022-08-05T06:50:01.185Z,36.12
2022-08-05T06:50:53.145Z,36.00
2022-08-05T06:51:52.090Z,36.08
2022-08-05T06:52:58.602Z,34.70
2022-08-05T06:53:53.653Z,35.00
2022-08-05T06:54:52.176Z,34.70
2022-08-05T06:55:52.051Z,34.40
2022-08-05T06:56:54.376Z,34.48
2022-08-05T06:58:03.547Z,33.78
2022-08-05T06:58:53.044Z,33.91
2022-08-05T06:59:56.478Z,34.92
2022-08-05T07:00:53.091Z,34.42
2022-08-05T07:01:53.023Z,34.70
2022-08-05T07:02:53.595Z,34.48
2022-08-05T07:03:51.946Z,34.52
2022-08-05T07:04:51.957Z,34.42
2022-08-05T07:05:51.921Z,34.20
2022-08-05T07:06:51.913Z,33.93
2022-08-05T07:07:51.898Z,35.11
2022-08-05T07:08:54.951Z,34.98
2022-08-05T07:09:55.544Z,33.78
2022-08-05T07:10:53.944Z,33.47
2022-08-05T07:11:51.933Z,33.46
2022-08-05T07:12:51.838Z,32.65
2022-08-05T07:13:59.522Z,32.15
2022-08-05T07:14:53.947Z,32.34
2022-08-05T07:16:01.057Z,31.57
2022-08-05T07:17:56.523Z,31.56
2022-08-05T07:18:01.694Z,31.70
2022-08-05T07:18:52.791Z,32.50
2022-08-05T07:20:51.737Z,33.73
2022-08-05T07:22:00.547Z,34.14
2022-08-05T07:22:52.746Z,34.86
2022-08-05T07:23:52.276Z,35.55
2022-08-05T07:24:52.435Z,35.93
2022-08-05T07:25:56.357Z,34.92
2022-08-05T07:26:51.657Z,34.90
2022-08-05T07:27:57.421Z,34.70
2022-08-05T07:28:52.663Z,34.90
2022-08-05T07:30:24.591Z,34.20
2022-08-05T07:30:54.849Z,34.52
2022-08-05T07:31:54.769Z,34.52
2022-08-05T07:32:53.384Z,34.92
2022-08-05T07:33:51.570Z,35.23
2022-08-05T07:34:51.560Z,34.70
2022-08-05T07:36:02.940Z,35.08
2022-08-05T07:36:52.563Z,33.99
2022-08-05T07:37:51.519Z,34.28
2022-08-05T07:38:54.674Z,34.44
2022-08-05T07:40:26.970Z,33.67
2022-08-05T07:40:55.685Z,33.67
2022-08-05T07:42:13.011Z,33.26
2022-08-05T07:42:52.496Z,33.84
2022-08-05T07:43:51.466Z,33.07
2022-08-05T07:44:51.437Z,33.29
2022-08-05T07:45:57.040Z,34.52
2022-08-05T07:46:52.467Z,34.84
2022-08-05T07:47:51.402Z,35.85
2022-08-05T07:49:02.655Z,35.93
2022-08-05T07:49:54.638Z,36.37
2022-08-05T07:50:51.363Z,37.57
2022-08-05T07:51:54.620Z,37.37
2022-08-05T07:52:51.343Z,37.07
2022-08-05T07:53:51.804Z,37.15
2022-08-05T07:54:51.309Z,36.43
2022-08-05T07:56:06.232Z,36.82
2022-08-05T07:57:02.057Z,36.63
2022-08-05T07:58:02.399Z,36.02
2022-08-05T07:58:57.636Z,36.02
2022-08-05T07:59:52.339Z,36.38
2022-08-05T08:00:51.290Z,36.07
2022-08-05T08:01:52.139Z,35.27
2022-08-05T08:03:14.654Z,34.77
2022-08-05T08:03:52.224Z,34.08
2022-08-05T08:04:51.182Z,34.77
2022-08-05T08:05:51.176Z,34.58
2022-08-05T08:06:51.273Z,34.61
2022-08-05T08:07:59.887Z,35.02
2022-08-05T08:08:52.164Z,35.93
2022-08-05T08:09:52.316Z,36.74
2022-08-05T08:10:51.105Z,37.87
2022-08-05T08:12:00.175Z,39.20
2022-08-05T08:12:52.102Z,39.70
2022-08-05T08:14:00.780Z,40.33
2022-08-05T08:14:52.084Z,40.76
2022-08-05T08:16:35.200Z,41.96
2022-08-05T08:16:52.061Z,42.39
2022-08-05T08:17:52.866Z,43.71
2022-08-05T08:18:51.009Z,44.42
2022-08-05T08:20:22.497Z,45.23
2022-08-05T08:21:02.265Z,45.45
2022-08-05T08:21:51.997Z,45.86
2022-08-05T08:22:50.956Z,46.57
2022-08-05T08:24:01.653Z,47.26
2022-08-05T08:24:52.221Z,47.19
2022-08-05T08:26:00.721Z,46.97
2022-08-05T08:26:52.420Z,47.36
2022-08-05T08:27:51.293Z,48.05
2022-08-05T08:29:02.053Z,47.75
2022-08-05T08:30:06.038Z,47.58
2022-08-05T08:30:51.896Z,49.06
2022-08-05T08:31:50.867Z,47.70
2022-08-05T08:32:51.149Z,48.63
2022-08-05T08:33:51.735Z,49.82
2022-08-05T08:34:50.806Z,49.82
2022-08-05T08:35:53.066Z,49.72
2022-08-05T08:36:55.821Z,48.93
2022-08-05T08:37:51.856Z,49.13
2022-08-05T08:38:53.201Z,49.50
2022-08-05T08:39:50.781Z,49.20
2022-08-05T08:40:51.624Z,49.33
2022-08-05T08:41:59.618Z,48.74
2022-08-05T08:42:52.574Z,48.93
2022-08-05T08:45:16.608Z,49.03
2022-08-05T08:45:19.238Z,49.33
2022-08-05T08:45:51.696Z,48.93
2022-08-05T08:46:50.659Z,49.72
2022-08-05T08:48:10.610Z,49.74
2022-08-05T08:49:07.823Z,50.54
2022-08-05T08:50:05.747Z,49.35
2022-08-05T08:51:03.815Z,49.77
2022-08-05T08:52:06.170Z,50.26
2022-08-05T08:52:53.131Z,50.36
2022-08-05T08:53:50.569Z,50.36
2022-08-05T08:54:50.552Z,49.99
2022-08-05T08:56:03.116Z,50.31
2022-08-05T08:56:51.557Z,50.61
2022-08-05T08:57:58.460Z,50.31
2022-08-05T08:58:51.539Z,50.63
2022-08-05T08:59:50.491Z,52.04
2022-08-05T09:00:50.567Z,51.52
2022-08-05T09:01:57.445Z,51.82
2022-08-05T09:02:51.483Z,50.61
2022-08-05T09:03:54.283Z,49.79
2022-08-05T09:05:16.443Z,49.89
2022-08-05T09:06:07.362Z,49.49
2022-08-05T09:06:51.432Z,48.98
2022-08-05T09:07:58.037Z,48.88
2022-08-05T09:08:51.415Z,50.16
2022-08-05T09:09:50.365Z,48.56
2022-08-05T09:10:50.355Z,50.04
2022-08-05T09:11:52.572Z,48.46
2022-08-05T09:12:51.025Z,48.19
2022-08-05T09:14:10.344Z,48.31
2022-08-05T09:14:58.095Z,49.32
2022-08-05T09:15:51.317Z,49.74
2022-08-05T09:16:50.273Z,49.94
2022-08-05T09:17:50.262Z,51.05
2022-08-05T09:18:50.255Z,50.95
2022-08-05T09:20:01.333Z,50.66
2022-08-05T09:20:51.259Z,51.32
2022-08-05T09:22:31.285Z,50.53
2022-08-05T09:22:51.950Z,50.24
2022-08-05T09:23:50.190Z,50.21
2022-08-05T09:24:50.190Z,50.01
2022-08-05T09:26:01.346Z,50.71
2022-08-05T09:26:51.715Z,50.90
2022-08-05T09:28:04.170Z,50.41
2022-08-05T09:28:51.162Z,50.81
2022-08-05T09:29:50.119Z,50.09
2022-08-05T09:30:50.112Z,50.59
2022-08-05T09:32:45.924Z,50.98
2022-08-05T09:32:52.986Z,51.05
2022-08-05T09:33:50.876Z,50.26
2022-08-05T09:34:50.061Z,50.95
2022-08-05T09:35:50.041Z,48.80
2022-08-05T09:36:54.847Z,49.42
2022-08-05T09:38:16.303Z,49.82
2022-08-05T09:38:51.035Z,50.31
2022-08-05T09:39:52.332Z,49.84
2022-08-05T09:40:53.750Z,50.43
2022-08-05T09:41:56.144Z,50.83
2022-08-05T09:42:50.991Z,49.74
2022-08-05T09:43:49.943Z,50.06
2022-08-05T09:44:50.673Z,50.26
2022-08-05T09:46:07.453Z,50.16
2022-08-05T09:46:53.625Z,50.26
2022-08-05T09:47:55.958Z,51.13
2022-08-05T09:49:07.002Z,50.53
2022-08-05T09:50:00.681Z,50.71
2022-08-05T09:50:50.877Z,51.79
2022-08-05T09:51:50.411Z,50.51
2022-08-05T09:52:53.005Z,50.88
2022-08-05T09:53:54.646Z,49.40
2022-08-05T09:54:50.843Z,50.09
2022-08-05T09:55:58.188Z,49.49
2022-08-05T09:56:52.280Z,49.60
2022-08-05T09:57:49.773Z,49.01
2022-08-05T09:58:50.241Z,49.20
2022-08-05T09:59:49.750Z,49.20
2022-08-05T10:00:49.739Z,49.30
2022-08-05T10:01:58.075Z,49.60
2022-08-05T10:02:50.793Z,50.09
2022-08-05T10:03:58.683Z,50.09
2022-08-05T10:04:50.724Z,49.99
2022-08-05T10:05:49.681Z,49.89
2022-08-05T10:06:55.122Z,49.79
2022-08-05T10:08:11.196Z,49.49
2022-08-05T10:08:54.009Z,50.16
2022-08-05T10:09:49.633Z,48.51
2022-08-05T10:10:54.454Z,48.71
2022-08-05T10:11:49.613Z,48.41
2022-08-05T10:12:50.475Z,49.01
2022-08-05T10:13:49.586Z,49.89
2022-08-05T10:14:49.568Z,49.60
2022-08-05T10:15:49.563Z,48.90
2022-08-05T10:16:52.836Z,48.90
2022-08-05T10:17:56.761Z,48.61
2022-08-05T10:18:50.554Z,49.40
2022-08-05T10:20:04.163Z,48.61
2022-08-05T10:20:50.537Z,49.01
2022-08-05T10:21:49.491Z,49.79
2022-08-05T10:22:50.865Z,49.30
2022-08-05T10:23:59.096Z,49.18
2022-08-05T10:24:50.630Z,48.58
2022-08-05T10:25:49.443Z,49.48
2022-08-05T10:26:52.335Z,48.28
2022-08-05T10:28:13.937Z,48.28
2022-08-05T10:28:50.636Z,48.78
2022-08-05T10:30:06.335Z,49.08
2022-08-05T10:32:52.385Z,48.56
2022-08-05T10:32:52.430Z,48.27
2022-08-05T10:33:01.641Z,47.60
2022-08-05T10:33:52.363Z,48.28
2022-08-05T10:34:49.335Z,48.19
2022-08-05T10:35:59.012Z,48.19
2022-08-05T10:36:50.343Z,48.68
2022-08-05T10:37:49.302Z,48.39
2022-08-05T10:38:49.287Z,48.61
2022-08-05T10:39:59.180Z,48.71
2022-08-05T10:40:50.702Z,48.61
2022-08-05T10:41:49.299Z,49.10
2022-08-05T10:42:49.240Z,49.30
2022-08-05T10:43:49.227Z,49.10
2022-08-05T10:44:49.214Z,49.40
2022-08-05T10:45:49.198Z,48.41
2022-08-05T10:46:51.101Z,48.71
2022-08-05T10:48:31.052Z,48.80
2022-08-05T10:48:56.551Z,49.49
2022-08-05T10:50:20.877Z,49.60
2022-08-05T10:50:50.175Z,49.10
2022-08-05T10:52:00.452Z,49.79
2022-08-05T10:52:50.148Z,49.30
2022-08-05T10:53:49.109Z,48.90
2022-08-05T10:54:56.122Z,48.80
2022-08-05T10:56:05.272Z,49.01
2022-08-05T10:56:53.161Z,49.08
2022-08-05T10:57:51.352Z,48.88
2022-08-05T10:58:50.490Z,48.49
2022-08-05T11:00:02.127Z,49.57
2022-08-05T11:00:55.420Z,48.58
2022-08-05T11:01:55.095Z,48.46
2022-08-05T11:02:50.408Z,47.67
2022-08-05T11:03:49.022Z,48.96
2022-08-05T11:04:48.979Z,47.97
2022-08-05T11:05:48.962Z,49.45
2022-08-05T11:06:48.952Z,48.86
2022-08-05T11:08:02.680Z,48.56
2022-08-05T11:08:49.957Z,48.07
2022-08-05T11:09:48.913Z,47.99
2022-08-05T11:10:50.414Z,48.68
2022-08-05T11:11:53.307Z,49.27
2022-08-05T11:12:50.533Z,48.98
2022-08-05T11:13:54.859Z,48.88
2022-08-05T11:15:11.779Z,49.27
2022-08-05T11:16:00.475Z,49.18
2022-08-05T11:16:57.082Z,49.77
2022-08-05T11:17:59.992Z,49.37
2022-08-05T11:18:51.759Z,49.67
2022-08-05T11:20:11.093Z,49.67
2022-08-05T11:20:49.815Z,49.18
2022-08-05T11:21:49.691Z,48.98
2022-08-05T11:22:49.933Z,49.10
2022-08-05T11:24:02.380Z,49.20
2022-08-05T11:24:50.851Z,49.99
2022-08-05T11:26:08.581Z,49.30
2022-08-05T11:26:49.952Z,50.59
2022-08-05T11:27:51.795Z,51.18
2022-08-05T11:28:49.720Z,50.78
2022-08-05T11:29:48.674Z,50.07
2022-08-05T11:30:48.663Z,50.26
2022-08-05T11:31:56.486Z,50.34
2022-08-05T11:32:49.675Z,49.87
2022-08-05T11:33:48.624Z,49.37
2022-08-05T11:34:54.192Z,50.07
2022-08-05T11:36:07.633Z,50.16
2022-08-05T11:36:52.973Z,49.87
2022-08-05T11:38:28.945Z,51.54
2022-08-05T11:38:51.752Z,50.26
2022-08-05T11:39:48.663Z,49.87
2022-08-05T11:40:48.541Z,49.67
2022-08-05T11:42:01.032Z,49.77
2022-08-05T11:42:49.543Z,50.46
2022-08-05T11:44:05.932Z,49.35
2022-08-05T11:44:53.875Z,50.34
2022-08-05T11:46:23.490Z,51.03
2022-08-05T11:47:09.488Z,48.86
2022-08-05T11:47:50.505Z,49.74
2022-08-05T11:48:48.446Z,51.13
2022-08-05T11:49:50.906Z,50.71
2022-08-05T11:50:48.427Z,48.24
2022-08-05T11:51:49.752Z,48.66
2022-08-05T11:52:50.275Z,48.56
2022-08-05T11:53:48.396Z,48.96
2022-08-05T11:54:54.686Z,49.45
2022-08-05T11:55:49.394Z,49.05
2022-08-05T11:56:50.309Z,49.25
2022-08-05T11:58:11.053Z,49.92
2022-08-05T11:58:52.815Z,49.22
2022-08-05T11:59:49.696Z,49.03
2022-08-05T12:00:52.802Z,50.41
2022-08-05T12:01:48.293Z,49.22
2022-08-05T12:02:48.313Z,49.62
2022-08-05T12:03:56.085Z,49.52
2022-08-05T12:04:59.238Z,49.10
2022-08-05T12:05:49.274Z,48.22
2022-08-05T12:06:48.941Z,49.10
2022-08-05T12:08:10.384Z,48.12
2022-08-05T12:08:51.303Z,51.18
2022-08-05T12:09:53.230Z,48.51
2022-08-05T12:10:48.820Z,48.51
2022-08-05T12:11:48.172Z,48.79
2022-08-05T12:12:58.436Z,48.98
2022-08-05T12:13:50.093Z,49.67
2022-08-05T12:14:48.134Z,49.45
2022-08-05T12:15:49.724Z,48.07
2022-08-05T12:16:48.116Z,48.49
2022-08-05T12:18:11.130Z,49.28
2022-08-05T12:18:53.287Z,49.18
2022-08-05T12:20:16.918Z,50.07
2022-08-05T12:20:49.094Z,49.38
2022-08-05T12:21:48.052Z,49.95
2022-08-05T12:22:48.042Z,48.37
2022-08-05T12:23:48.029Z,46.50
2022-08-05T12:24:49.747Z,46.40
2022-08-05T12:25:47.999Z,46.77
2022-08-05T12:26:47.987Z,47.06
2022-08-05T12:27:53.348Z,47.78
2022-08-05T12:28:47.963Z,48.47
2022-08-05T12:29:53.922Z,47.38
2022-08-05T12:30:48.978Z,47.19
2022-08-05T12:31:49.927Z,47.68
2022-08-05T12:32:49.658Z,48.07
2022-08-05T12:33:47.900Z,47.80
2022-08-05T12:34:47.890Z,48.51
2022-08-05T12:35:48.071Z,48.61
2022-08-05T12:36:47.868Z,48.71
2022-08-05T12:37:47.856Z,48.61
2022-08-05T12:38:47.840Z,48.10
2022-08-05T12:39:48.607Z,48.69
2022-08-05T12:40:47.814Z,48.02
2022-08-05T12:41:48.628Z,48.81
2022-08-05T12:42:47.792Z,48.81
2022-08-05T12:43:47.780Z,49.01
2022-08-05T12:44:47.912Z,49.01
2022-08-05T12:45:49.984Z,49.20
2022-08-05T12:46:47.744Z,49.50
2022-08-05T12:48:17.554Z,50.09
2022-08-05T12:48:48.753Z,49.20
2022-08-05T12:50:05.336Z,49.08
2022-08-05T12:50:48.725Z,48.19
2022-08-05T12:52:12.470Z,48.41
2022-08-05T12:52:48.702Z,48.02
2022-08-05T12:53:55.880Z,49.10